createdAt,value
2019-04-21T00:00:11.585Z,59.42
2019-04-21T00:10:47.760Z,62.25
2019-04-21T00:15:24.015Z,62.08
2019-04-21T00:20:26.551Z,62.24
2019-04-21T00:25:38.238Z,62.55
2019-04-21T00:30:39.456Z,61.94
2019-04-21T00:35:13.935Z,62.47
2019-04-21T00:40:47.672Z,62.35
2019-04-21T00:45:18.023Z,62.19
2019-04-21T00:51:09.579Z,62.93
2019-04-21T00:55:48.408Z,63.17
2019-04-21T01:00:45.656Z,64.02
2019-04-21T01:05:51.369Z,65.29
2019-04-21T01:10:28.338Z,64.83
2019-04-21T01:20:17.812Z,65.04
2019-04-21T01:25:17.416Z,64.8
2019-04-21T01:30:44.680Z,65.24
2019-04-21T01:40:44.511Z,67.25
2019-04-21T01:50:40.767Z,68.55
2019-04-21T02:05:58.441Z,69.13
2019-04-21T02:15:55.351Z,69.61
2019-04-21T02:20:25.237Z,69.95
2019-04-21T02:31:04.636Z,72.91
2019-04-21T02:36:28.876Z,72.91
2019-04-21T02:40:38.273Z,73.7
2019-04-21T02:46:12.241Z,72.79
2019-04-21T02:56:00.042Z,73.01
2019-04-21T03:00:54.658Z,73.93
2019-04-21T03:06:05.698Z,74.91
2019-04-21T03:11:08.569Z,75.36
2019-04-21T03:16:16.546Z,76.85
2019-04-21T03:20:58.709Z,77.44
2019-04-21T03:26:09.971Z,78.26
2019-04-21T03:31:49.098Z,78.96
2019-04-21T03:36:32.581Z,79.21
2019-04-21T03:40:57.043Z,79.88
2019-04-21T04:01:15.390Z,79.13
2019-04-21T04:06:24.316Z,80.41
2019-04-21T04:11:02.441Z,80.58
2019-04-21T04:16:05.567Z,81.01
2019-04-21T04:20:42.171Z,80.34
2019-04-21T04:26:06.592Z,81.36
2019-04-21T04:31:24.034Z,82.14
2019-04-21T04:36:23.634Z,82.61
2019-04-21T04:40:55.202Z,83.82
2019-04-21T04:45:53.466Z,84.79
2019-04-21T04:51:11.402Z,84.01
2019-04-21T04:56:10.281Z,83.84
2019-04-21T05:06:09.799Z,83.25
2019-04-21T05:11:18.140Z,83.36
2019-04-21T05:15:49.789Z,83.65
2019-04-21T05:20:52.002Z,84.94
2019-04-21T05:25:37.334Z,85.4
2019-04-21T05:40:35.293Z,86.79
2019-04-21T05:45:47.116Z,86.62
2019-04-21T05:50:37.543Z,86.46
2019-04-21T05:55:35.662Z,86.28
2019-04-21T06:01:14.379Z,86.18
2019-04-21T06:06:08.121Z,82.79
2019-04-21T06:10:47.152Z,83.97
2019-04-21T06:15:55.937Z,81.73
2019-04-21T06:25:54.343Z,75.65
2019-04-21T06:30:59.057Z,71.91
2019-04-21T06:36:11.163Z,68.7
2019-04-21T06:40:55.620Z,68.29
2019-04-21T06:45:52.302Z,65.62
2019-04-21T06:50:52.304Z,66.25
2019-04-21T06:55:51.455Z,65.18
2019-04-21T07:00:35.665Z,64.41
2019-04-21T07:06:03.091Z,62
2019-04-21T07:25:45.377Z,61.21
2019-04-21T07:30:51.332Z,62.32
2019-04-21T07:35:42.968Z,62.06
2019-04-21T07:40:33.091Z,61.42
2019-04-21T07:45:29.950Z,60.69
2019-04-21T08:01:03.708Z,51.22
2019-04-21T08:05:45.572Z,48.55
2019-04-21T08:15:50.605Z,49.02
2019-04-21T08:20:23.850Z,50.43
2019-04-21T08:25:58.692Z,45.93
2019-04-21T08:30:42.300Z,44.61
2019-04-21T08:36:17.311Z,46.04
2019-04-21T08:40:48.933Z,42.87
2019-04-21T08:45:27.730Z,44.92
2019-04-21T08:55:55.237Z,44.72
2019-04-21T09:00:54.910Z,44.82
2019-04-21T09:05:35.444Z,42.73
2019-04-21T09:10:46.616Z,45.07
2019-04-21T09:20:51.991Z,43.35
2019-04-21T09:25:52.142Z,44.95
2019-04-21T09:30:06.875Z,46.8
2019-04-21T09:35:10.675Z,45.18
2019-04-21T09:40:04.821Z,44.85
2019-04-21T09:45:07.697Z,42.47
2019-04-21T09:50:06.490Z,44.72
2019-04-21T09:55:13.834Z,43.27
2019-04-21T10:00:14.941Z,44.34
2019-04-21T10:05:02.119Z,41.81
2019-04-21T10:10:01.397Z,39.54
2019-04-21T10:15:02.105Z,36.8
2019-04-21T10:20:02.892Z,36.47
2019-04-21T10:25:03.048Z,37.13
2019-04-21T10:30:01.887Z,38.87
2019-04-21T10:35:01.324Z,40.08
2019-04-21T10:40:01.692Z,40.11
2019-04-21T10:45:03.426Z,38.86
2019-04-21T10:50:02.939Z,35.42
2019-04-21T11:00:01.965Z,31.2
2019-04-21T11:05:02.616Z,31.49
2019-04-21T11:10:02.628Z,30.49
2019-04-21T11:15:03.334Z,30.72
2019-04-21T11:20:01.654Z,31.86
2019-04-21T11:25:03.179Z,33.13
2019-04-21T11:30:02.494Z,33.28
2019-04-21T11:35:03.239Z,33.7
2019-04-21T11:40:11.242Z,32.43
2019-04-21T11:45:01.750Z,33.75
2019-04-21T11:50:03.428Z,34.54
2019-04-21T11:55:02.908Z,32.69
2019-04-21T12:00:02.206Z,34.1
2019-04-21T12:05:01.501Z,33.81
2019-04-21T12:10:01.919Z,33.94
2019-04-21T12:15:02.166Z,32.6
2019-04-21T12:20:03.163Z,29.76
2019-04-21T12:25:03.022Z,30.88
2019-04-21T12:30:02.336Z,32.12
2019-04-21T12:35:02.110Z,32.94
2019-04-21T12:40:02.934Z,31.69
2019-04-21T12:45:01.702Z,32.56
2019-04-21T12:50:02.939Z,32.81
2019-04-21T12:55:01.924Z,32.54
2019-04-21T13:00:02.972Z,31.85
2019-04-21T13:05:02.276Z,31.06
2019-04-21T13:10:02.483Z,32.98
2019-04-21T13:15:04.344Z,31.64
2019-04-21T13:20:01.687Z,32.24
2019-04-21T13:25:02.617Z,32.48
2019-04-21T13:30:02.454Z,33.13
2019-04-21T13:35:03.462Z,32.77
2019-04-21T13:40:44.656Z,31.38
2019-04-21T13:45:04.895Z,36.4
2019-04-21T13:50:05.199Z,36.12
2019-04-21T13:55:03.084Z,31.98
2019-04-21T14:00:01.704Z,32.48
2019-04-21T14:05:01.471Z,32.67
2019-04-21T14:10:10.012Z,32.62
2019-04-21T14:15:02.438Z,33
2019-04-21T14:20:01.743Z,33.24
2019-04-21T14:25:02.021Z,33.11
2019-04-21T14:30:03.005Z,32.31
2019-04-21T14:35:01.299Z,32.62
2019-04-21T14:40:12.492Z,32.3
2019-04-21T14:45:03.350Z,34.09
2019-04-21T14:50:01.233Z,30.66
2019-04-21T14:55:02.956Z,28.94
2019-04-21T15:00:01.239Z,29.03
2019-04-21T15:05:02.261Z,28.15
2019-04-21T15:10:14.883Z,30.49
2019-04-21T15:15:02.378Z,28.38
2019-04-21T15:20:11.020Z,27.85
2019-04-21T15:25:03.006Z,27.68
2019-04-21T15:30:03.140Z,26.2
2019-04-21T15:35:04.111Z,27.89
2019-04-21T15:40:21.173Z,27.87
2019-04-21T15:45:03.021Z,27.05
2019-04-21T15:50:10.865Z,25.51
2019-04-21T15:55:03.760Z,25.5
2019-04-21T16:00:02.918Z,25.21
2019-04-21T16:05:01.221Z,25
2019-04-21T16:10:05.190Z,25.79
2019-04-21T16:15:03.157Z,25.19
2019-04-21T16:20:03.987Z,25.3
2019-04-21T16:25:03.189Z,24.84
2019-04-21T16:30:02.143Z,24.77
2019-04-21T16:35:11.032Z,24.54
2019-04-21T16:40:01.664Z,23.93
2019-04-21T16:45:03.054Z,24.88
2019-04-21T16:50:01.810Z,24.57
2019-04-21T16:55:06.529Z,24.92
2019-04-21T17:00:02.610Z,24.16
2019-04-21T17:05:02.750Z,24.83
2019-04-21T17:10:02.737Z,25.74
2019-04-21T17:15:32.031Z,24.48
2019-04-21T17:20:28.513Z,26.7
2019-04-21T17:25:04.123Z,24.64
2019-04-21T17:30:01.801Z,24.83
2019-04-21T17:35:02.116Z,26.54
2019-04-21T17:40:06.632Z,25.75
2019-04-21T17:45:03.779Z,25.49
2019-04-21T17:50:05.927Z,25.17
2019-04-21T17:55:17.023Z,25.48
2019-04-21T18:01:09.794Z,26.71
2019-04-21T18:05:37.130Z,30.3
2019-04-21T18:10:34.688Z,32.34
2019-04-21T18:15:28.843Z,32.89
2019-04-21T18:20:01.975Z,31.89
2019-04-21T18:25:12.359Z,33.1
2019-04-21T18:30:04.253Z,30.23
2019-04-21T18:35:09.705Z,30.9
2019-04-21T18:40:16.433Z,30.98
2019-04-21T18:46:13.035Z,31.57
2019-04-21T18:50:02.207Z,32.1
2019-04-21T18:55:27.790Z,33.55
2019-04-21T19:00:17.758Z,33.42
2019-04-21T19:05:15.892Z,34.01
2019-04-21T19:10:35.189Z,34.64
2019-04-21T19:20:25.001Z,34.63
2019-04-21T19:35:07.154Z,35.42
2019-04-21T19:40:32.606Z,36.46
2019-04-21T19:50:40.343Z,36.85
2019-04-21T19:55:02.724Z,37.89
2019-04-21T20:00:07.729Z,38.62
2019-04-21T20:05:11.173Z,38.76
2019-04-21T20:10:39.067Z,38.86
2019-04-21T20:15:41.244Z,38.45
2019-04-21T20:20:04.136Z,38.7
2019-04-21T20:25:12.458Z,38.98
2019-04-21T20:35:51.573Z,39.89
2019-04-21T20:40:19.472Z,39.41
2019-04-21T20:55:26.352Z,40.02
2019-04-21T21:00:46.981Z,40.28
2019-04-21T21:05:25.809Z,40.47
2019-04-21T21:10:36.587Z,40.14
2019-04-21T21:15:29.027Z,40.31
2019-04-21T21:20:41.256Z,40.64
2019-04-21T21:25:50.180Z,40.32
2019-04-21T21:30:31.840Z,42.15
2019-04-21T21:35:35.243Z,41.73
2019-04-21T21:40:41.603Z,42.69
2019-04-21T21:45:17.185Z,48.38
2019-04-21T21:50:23.506Z,48.83
2019-04-21T21:55:01.757Z,50.98
2019-04-21T22:00:10.836Z,52.48
2019-04-21T22:05:14.707Z,52.64
2019-04-21T22:10:02.599Z,55.8
2019-04-21T22:15:17.258Z,57.76
2019-04-21T22:20:36.979Z,58.41
2019-04-21T22:25:18.201Z,60.28
2019-04-21T22:30:09.347Z,59.88
2019-04-21T22:35:09.621Z,60.68
2019-04-21T22:40:23.408Z,60.68
2019-04-21T22:45:01.221Z,60.88
2019-04-21T22:50:02.805Z,59.36
2019-04-21T22:55:16.578Z,58.22
2019-04-21T23:00:10.871Z,60.69
2019-04-21T23:05:04.414Z,60.45
2019-04-21T23:10:03.638Z,60.45
2019-04-21T23:20:38.575Z,63.42
2019-04-21T23:25:30.370Z,63.94
2019-04-21T23:30:44.566Z,65.9
2019-04-21T23:35:21.634Z,66.91
2019-04-21T23:40:17.763Z,67.08
2019-04-21T23:45:06.416Z,66.57
2019-04-21T23:50:24.620Z,66.13
2019-04-21T23:55:03.378Z,66.41
